Weather at Salisbury Ocean City Wicomico Regional Airport

Public forecast

Using degrees Fahrenheit for public forecast. Weather courtesy of forecast.io.

Current aviation weather report (METAR) for Salisbury Ocean City Wicomico Regional Airport

Retrieved 2021/07/29 01:54 UTC (51 minutes ago):

KSBY 290154Z 08004KT 10SM CLR 23/21 A3001 RMK AO2 LTG DSNT W SLP163 T02330211

Aviation forecast (TAF) for Salisbury Ocean City Wicomico Regional Airport

Retrieved 2021-07-29 00:24 UTC (2 hours ago):

TAF KSBY 282323Z 2900/2924 12004KT P6SM SCT200 FM290700 VRB03KT 5SM BR BKN050 FM291000 17004KT P6SM SCT012 BKN020 FM291600 18007KT P6SM BKN040